LiveATC.Net - Listen to live air traffic control over the Internet!


ICAO: LPPR  IATA: OPO   Airport: Porto Airport
City: Porto
Country: Portugal   Continent: Europe
LPPR METAR Weather: LPPR 181300Z 24008KT 210V280 9999 SCT008 BKN014 15/14 Q1014
LPPR ADS-B Flight Tracking  (ADSBExchange)
LPPR Flight Activity (FlightAware)

LPPR Approach #1
Feed Status: UP   Listeners: 3
Listen in your browser - HTML5 player (in browser, HTML5)
Click here to listen with your own player (launches your MP3 player)
Archive Access: LPPR Approach #1
FacilityFrequency
Porto Approach121.105

NOTICE

Unauthorized use prohibited. See LiveATC.net Terms of Service


Airport/ARTCC Code
Frequency Search
(e.g., 124.400, 128.75)
Site-wide search
 


Browse Feeds
Top 50 Feeds
HF Oceanic Feeds
Coverage Map
Bad Weather Areas

LiveATC FAQ

Increase Coverage

Contact LiveATC.net
Press Inquiries

LiveATC on iPhone
LiveATC on Android

LiveATC Mobile
(Mobile browser)

ATC Audio Archives
Interesting Recordings

LiveATC Forums


Home Page
About LiveATC.net


Terms of Use
Privacy Policy

AIRMETs/SIGMETs

FAA Airport Status
NAS Status
Arrival Demand


Server Software By:
Icecast.org
Liquidsoap